createdAt,value
2023-03-25T00:02:11.292Z,74.42
2023-03-25T00:04:48.476Z,74.43
2023-03-25T00:07:35.829Z,74.47
2023-03-25T00:10:08.199Z,74.46
2023-03-25T00:12:41.937Z,74.53
2023-03-25T00:15:15.607Z,74.73
2023-03-25T00:17:53.554Z,75.00
2023-03-25T00:26:33.973Z,75.24
2023-03-25T00:29:03.543Z,75.37
2023-03-25T00:31:36.158Z,75.25
2023-03-25T00:34:15.761Z,75.33
2023-03-25T00:36:49.206Z,75.41
2023-03-25T00:39:18.402Z,75.60
2023-03-25T00:42:09.712Z,75.97
2023-03-25T00:44:44.445Z,76.13
2023-03-25T00:50:26.329Z,76.13
2023-03-25T00:54:05.669Z,76.14
2023-03-25T00:57:09.298Z,75.88
2023-03-25T00:59:41.605Z,75.78
2023-03-25T01:03:22.064Z,75.82
2023-03-25T01:17:52.179Z,75.56
2023-03-25T01:27:31.539Z,75.58
2023-03-25T01:40:48.681Z,76.08
2023-03-25T01:46:27.024Z,76.57
2023-03-25T01:49:17.239Z,76.74
2023-03-25T01:52:40.452Z,77.19
2023-03-25T09:01:26.590Z,35.15
2023-03-25T09:04:00.129Z,34.83
2023-03-25T09:06:48.064Z,34.06
2023-03-25T09:10:59.517Z,33.87
2023-03-25T09:45:31.279Z,35.06
2023-03-25T09:48:45.354Z,35.36
2023-03-25T09:51:17.652Z,35.26
2023-03-25T09:54:16.870Z,35.07
2023-03-25T09:56:47.650Z,34.64
2023-03-25T09:59:20.343Z,34.59
2023-03-25T10:02:04.583Z,34.09
2023-03-25T10:05:00.482Z,34.31
2023-03-25T10:08:13.063Z,34.63
2023-03-25T10:11:03.262Z,34.39
2023-03-25T10:14:46.399Z,34.61
2023-03-25T10:18:40.488Z,34.76
2023-03-25T10:24:46.012Z,34.68
2023-03-25T10:27:37.018Z,34.47
2023-03-25T10:30:27.543Z,34.53
2023-03-25T10:33:01.844Z,34.60
2023-03-25T10:40:40.511Z,34.88
2023-03-25T10:43:46.403Z,35.78
2023-03-25T10:47:06.900Z,36.30
2023-03-25T10:49:37.043Z,36.72
2023-03-25T10:56:56.547Z,37.50
2023-03-25T10:59:58.634Z,37.70
2023-03-25T11:03:21.884Z,37.54
2023-03-25T11:06:00.394Z,38.01
2023-03-25T11:08:52.880Z,37.98
2023-03-25T11:11:39.574Z,38.04
2023-03-25T11:14:38.525Z,38.39
2023-03-25T11:17:45.911Z,39.51
2023-03-25T11:24:23.847Z,40.17
2023-03-25T11:26:57.958Z,39.70
2023-03-25T11:29:30.832Z,38.92
2023-03-25T11:32:38.748Z,39.07
2023-03-25T11:44:52.063Z,42.63
2023-03-25T12:00:18.558Z,42.52
2023-03-25T12:03:33.206Z,42.18
2023-03-25T12:06:59.612Z,42.86
2023-03-25T14:46:28.678Z,56.94
2023-03-25T14:56:52.722Z,57.78
2023-03-25T15:18:02.099Z,58.68
2023-03-25T15:25:02.558Z,59.53
2023-03-25T15:28:19.557Z,60.11
2023-03-25T15:31:21.132Z,60.73
2023-03-25T15:34:09.033Z,61.03
2023-03-25T15:37:43.144Z,61.41
2023-03-25T15:40:41.033Z,61.83
2023-03-25T15:43:59.654Z,62.31
2023-03-25T15:47:51.875Z,62.60
2023-03-25T15:51:12.134Z,62.83
2023-03-25T15:54:09.217Z,63.32
2023-03-25T15:56:48.594Z,63.55
2023-03-25T15:59:53.638Z,63.78
2023-03-25T21:22:09.802Z,90.97
2023-03-25T21:45:14.529Z,92.46
2023-03-25T21:48:10.630Z,92.54
2023-03-25T21:50:59.171Z,92.48
2023-03-25T21:54:14.005Z,92.49
2023-03-25T22:00:18.349Z,92.32
2023-03-25T22:10:17.280Z,92.01
2023-03-25T22:13:28.469Z,91.96
2023-03-25T22:19:47.077Z,92.34
2023-03-25T22:22:46.235Z,92.52
2023-03-25T22:25:35.302Z,92.74
2023-03-25T22:29:32.826Z,92.97
2023-03-25T22:32:10.540Z,93.30
2023-03-25T22:34:43.763Z,93.53
2023-03-25T22:37:22.366Z,93.79
2023-03-25T22:39:54.889Z,94.01
2023-03-25T22:49:05.895Z,94.73
2023-03-25T22:51:48.572Z,95.05
2023-03-25T22:54:32.162Z,95.13
2023-03-25T22:57:07.837Z,95.15
2023-03-25T22:59:39.044Z,95.43
2023-03-25T23:02:25.804Z,95.66
2023-03-25T23:12:06.182Z,96.30
2023-03-25T23:18:45.790Z,96.97
2023-03-25T23:25:19.255Z,97.60
2023-03-25T23:28:21.246Z,98.17
2023-03-25T23:31:40.687Z,98.46
2023-03-25T23:38:11.679Z,98.89
2023-03-25T23:41:32.186Z,99.07
2023-03-25T23:44:04.127Z,99.22
2023-03-25T23:46:47.829Z,99.21
2023-03-25T23:49:27.692Z,99.35
2023-03-25T23:51:59.839Z,99.49
2023-03-25T23:54:29.757Z,99.63
